메인 페이지
METAR-TAF:

METAR-TAF

공항 :

Limon Municipal Airport

Limon, 콜로라도, 미국

위도: 39-16-24N, 경도: 103-40-00W, 고도: 1635m

현재 날씨관측

예보는 23분 전, 22:55시(UTC)에 발표되었습니다.
북북서3kt
온도 8°C
습도 61%
기압 1013 hPa
시정: 16.1km
맑음

METAR: KLIC 162255Z AUTO 34003KT 10SM CLR 08/01 A2992 RMK AO2 SLP121 T00780011

시각: 16:18 (23:18 UTC)


TAF: 누락

4,000개 이상의 공항 관측 자료 및 예보 (METAR 및 TAF 보고).

지도상에서 검색 가능한 기상관측소가 노란 점과 빨간 점으로 표시되어 있습니다.

기상관측소 명을 보려면 표시 위로 마우스를 이동하세요.

날씨 관측과 예보를 보려면 클릭하세요.

지도 변경 : 확대하려면 엑스 표시가 있는 녹색 버튼, 축소하려면 빼기 표시가 있는 녹색 버튼, 다음 페이지의 지도를 보려면 녹색 화살표를 클릭하세요.


METAR-TAF: